Terminal Aerodrome Forecast
Issued by NWS

Home | Current Version | Previous Version | Text Only | Print | Product List | Glossary On
Versions: 1 2 3 4 5 6 7 8 9 10 11 12
000
FTUS44 KEWX 281100
TAFSSF
TAF
KSSF 281126Z 2812/2912 05003KT P6SM SKC
     FM281500 10007KT P6SM SCT050
     FM290300 14009KT P6SM FEW070
     FM290900 11002KT P6SM OVC025=

USA.gov is the U.S. government's official web portal to all federal, state and local government web resources and services.